Time;durP1;ratioP1;P1;durP2;ratioP2;P2;SDS_P1;SDS_P2;PMS_P1;PMS_P2;Temp;Humidity;BMP_temperature;BMP_pressure;BME280_temperature;BME280_humidity;BME280_pressure;Samples;Min_cycle;Max_cycle;Signal;HPM_P1;HPM_P2
2022/10/05 00:00:52;;;;;;;11.20;6.18;;;;;;;11.66;80.17;100887.69;5057505;28;20415;-75
2022/10/05 00:03:18;;;;;;;12.50;6.00;;;;;;;11.66;80.27;100895.00;5068000;28;20413;-75
2022/10/05 00:05:44;;;;;;;10.33;5.97;;;;;;;11.64;80.23;100895.28;5064587;28;20387;-75
2022/10/05 00:08:19;;;;;;;14.27;6.15;;;;;;;11.64;80.10;100894.44;5062604;28;20409;-75
2022/10/05 00:10:45;;;;;;;18.10;6.70;;;;;;;11.64;80.10;100895.28;5058916;28;20419;-75
2022/10/05 00:13:25;;;;;;;11.50;6.55;;;;;;;11.64;80.20;100898.00;5059617;28;20497;-75
2022/10/05 00:15:58;;;;;;;9.25;6.50;;;;;;;11.66;80.27;100890.41;5065086;28;20998;-75
2022/10/05 00:18:25;;;;;;;12.00;6.30;;;;;;;11.68;80.60;100896.44;5034937;28;20944;-75
2022/10/05 00:20:50;;;;;;;13.23;6.57;;;;;;;11.67;80.72;100900.22;5052974;28;20399;-75
2022/10/05 00:23:26;;;;;;;11.87;6.40;;;;;;;11.69;80.64;100902.72;5064761;28;20391;-75
2022/10/05 00:25:51;;;;;;;12.85;6.63;;;;;;;11.66;80.85;100900.44;5066155;28;20382;-75
2022/10/05 00:28:25;;;;;;;18.20;6.93;;;;;;;11.65;80.91;100899.66;5071440;28;20395;-75
2022/10/05 00:30:54;;;;;;;13.73;7.07;;;;;;;11.66;81.17;100901.28;5069355;28;20437;-75
2022/10/05 00:33:20;;;;;;;10.67;6.33;;;;;;;11.66;80.89;100904.00;5061315;28;20392;-75
2022/10/05 00:35:45;;;;;;;15.40;7.30;;;;;;;11.65;81.29;100904.25;5067137;28;20864;-75
2022/10/05 00:38:11;;;;;;;9.75;6.30;;;;;;;11.65;81.16;100912.38;5071433;28;20729;-75
2022/10/05 00:40:39;;;;;;;12.77;6.37;;;;;;;11.62;81.27;100911.00;5058977;28;20413;-75
2022/10/05 00:43:29;;;;;;;13.35;6.63;;;;;;;11.61;81.26;100908.50;5064245;28;20417;-75
2022/10/05 00:46:08;;;;;;;10.07;6.45;;;;;;;11.59;81.60;100903.28;5046388;28;20391;-75
2022/10/05 00:48:52;;;;;;;9.45;6.80;;;;;;;11.64;81.43;100911.56;5071146;28;20384;-75
2022/10/05 00:51:30;;;;;;;6.85;5.95;;;;;;;11.62;81.31;100902.84;5066601;28;20409;-75
2022/10/05 00:54:07;;;;;;;11.18;6.57;;;;;;;11.63;81.66;100904.47;5071024;28;21042;-75
2022/10/05 00:56:44;;;;;;;11.15;6.80;;;;;;;11.63;81.52;100909.91;5052569;28;20929;-75
2022/10/05 00:59:24;;;;;;;12.10;6.60;;;;;;;11.62;81.54;100919.13;5065425;28;20419;-75
2022/10/05 01:02:25;;;;;;;14.70;6.28;;;;;;;11.58;81.71;100906.28;5047904;28;20391;-75
2022/10/05 01:04:58;;;;;;;6.90;5.28;;;;;;;11.49;81.59;100903.13;5055493;28;21008;-75
2022/10/05 01:07:49;;;;;;;9.40;4.95;;;;;;;11.40;81.36;100905.38;5051846;28;20407;-75
2022/10/05 01:10:30;;;;;;;10.02;5.35;;;;;;;11.34;81.08;100910.91;5051836;28;20573;-75
2022/10/05 01:13:23;;;;;;;10.65;5.00;;;;;;;11.30;80.82;100904.31;5067464;28;20424;-75
2022/10/05 01:15:56;;;;;;;14.43;4.78;;;;;;;11.23;80.52;100904.44;5044479;28;20465;-75
2022/10/05 01:18:40;;;;;;;5.95;5.03;;;;;;;11.23;80.20;100896.31;5050833;28;20441;-75
2022/10/05 01:21:12;;;;;;;5.68;4.38;;;;;;;11.12;80.27;100891.75;5034436;28;20413;-75
2022/10/05 01:23:47;;;;;;;7.68;4.68;;;;;;;11.07;80.06;100882.66;5070508;28;20391;-75
2022/10/05 01:26:27;;;;;;;5.90;4.60;;;;;;;11.08;80.12;100881.59;5070538;28;20479;-75
2022/10/05 01:29:14;;;;;;;5.93;5.38;;;;;;;11.07;80.09;100880.75;5066195;28;20382;-75
2022/10/05 01:32:07;;;;;;;7.55;4.00;;;;;;;11.06;79.78;100879.13;5051966;28;20873;-75
2022/10/05 01:35:03;;;;;;;7.82;4.40;;;;;;;11.03;79.56;100874.16;5063938;28;20433;-75
2022/10/05 01:37:59;;;;;;;6.25;4.43;;;;;;;11.01;79.54;100873.59;5052669;28;20452;-75
2022/10/05 01:40:43;;;;;;;18.33;5.43;;;;;;;10.99;79.67;100864.03;5054488;28;20924;-75
2022/10/05 01:43:20;;;;;;;11.52;4.55;;;;;;;10.98;79.56;100865.09;5047344;28;20391;-75
2022/10/05 01:46:05;;;;;;;12.20;4.25;;;;;;;10.98;79.67;100862.38;5070298;28;20418;-75
2022/10/05 01:48:36;;;;;;;5.78;3.90;;;;;;;10.98;79.54;100868.63;5057030;28;20785;-75
2022/10/05 01:51:14;;;;;;;18.00;5.38;;;;;;;10.99;79.64;100872.19;5054536;28;20415;-75
2022/10/05 01:53:51;;;;;;;21.77;5.00;;;;;;;10.98;79.85;100873.22;5052006;28;20505;-75
2022/10/05 01:56:41;;;;;;;8.55;4.00;;;;;;;10.98;79.73;100876.78;5063958;28;20412;-75
2022/10/05 01:59:33;;;;;;;12.90;4.17;;;;;;;10.93;79.91;100874.75;5063221;28;20437;-75
2022/10/05 02:02:06;;;;;;;11.90;4.43;;;;;;;10.96;79.78;100869.94;5029792;28;20474;-75
2022/10/05 02:04:37;;;;;;;13.80;4.68;;;;;;;10.91;79.76;100885.03;5043362;28;20384;-75
2022/10/05 02:07:13;;;;;;;5.18;4.10;;;;;;;10.88;79.94;100892.81;5050029;28;20491;-75
2022/10/05 02:09:46;;;;;;;6.18;4.22;;;;;;;10.88;79.79;100881.97;5059429;28;20462;-75
2022/10/05 02:12:18;;;;;;;13.63;4.30;;;;;;;10.85;80.05;100880.56;5067939;28;20393;-75
2022/10/05 02:14:48;;;;;;;13.25;4.30;;;;;;;10.86;79.91;100881.38;5069475;28;20379;-75
2022/10/05 02:17:20;;;;;;;6.60;4.03;;;;;;;10.84;79.90;100884.31;5051489;28;20419;-75
2022/10/05 02:19:59;;;;;;;4.63;4.22;;;;;;;10.85;79.96;100887.84;5047536;28;20959;-75
2022/10/05 02:22:38;;;;;;;18.67;4.60;;;;;;;10.85;80.07;100891.41;5045164;28;20956;-75
2022/10/05 02:25:09;;;;;;;13.30;6.20;;;;;;;10.89;80.11;100891.75;5069228;28;20715;-75
2022/10/05 02:27:42;;;;;;;10.57;6.32;;;;;;;10.94;80.38;100891.84;5066528;28;20388;-75
2022/10/05 02:30:09;;;;;;;16.77;8.48;;;;;;;10.93;80.66;100892.94;5038972;28;20464;-75
2022/10/05 02:32:43;;;;;;;19.15;8.77;;;;;;;10.93;81.42;100892.94;5052756;28;20411;-75
2022/10/05 02:35:15;;;;;;;16.10;8.23;;;;;;;10.98;81.71;100894.94;5068766;28;20388;-75
2022/10/05 02:37:59;;;;;;;16.45;9.07;;;;;;;11.03;81.92;100895.06;5041828;28;20382;-75
2022/10/05 02:40:41;;;;;;;20.23;9.85;;;;;;;11.05;82.09;100901.06;5058737;28;20525;-75
2022/10/05 02:43:09;;;;;;;29.77;10.43;;;;;;;10.94;82.89;100892.69;5049951;28;20425;-75
2022/10/05 02:46:01;;;;;;;29.70;11.57;;;;;;;10.94;83.66;100898.09;5066816;28;20879;-75
2022/10/05 02:48:42;;;;;;;37.43;12.53;;;;;;;10.95;83.93;100893.50;5065190;28;20391;-75
2022/10/05 02:51:32;;;;;;;34.42;12.68;;;;;;;11.06;83.67;100887.28;5034065;28;20422;-75
2022/10/05 02:54:03;;;;;;;24.98;11.27;;;;;;;11.13;83.63;100881.72;5047463;28;20789;-75
2022/10/05 02:56:47;;;;;;;14.70;9.93;;;;;;;11.18;83.77;100881.81;5060573;28;20744;-75
2022/10/05 02:59:36;;;;;;;14.40;9.73;;;;;;;11.22;83.72;100877.56;5053857;28;20406;-75
2022/10/05 03:02:23;;;;;;;13.07;8.85;;;;;;;11.24;83.71;100868.13;5068728;28;20505;-75
2022/10/05 03:05:22;;;;;;;17.63;8.77;;;;;;;11.23;83.69;100860.25;5066983;28;20407;-75
2022/10/05 03:08:01;;;;;;;16.15;8.73;;;;;;;11.21;83.48;100863.19;5048357;28;20494;-75
2022/10/05 03:10:41;;;;;;;11.93;8.32;;;;;;;11.21;83.50;100870.47;5067081;28;20418;-75
2022/10/05 03:13:25;;;;;;;19.73;8.20;;;;;;;11.23;83.42;100861.03;5061364;28;21212;-75
2022/10/05 03:15:59;;;;;;;14.10;7.55;;;;;;;11.21;83.38;100855.03;5068704;28;20403;-75
2022/10/05 03:18:24;;;;;;;16.63;7.68;;;;;;;11.24;83.53;100861.88;5063962;28;20417;-75
2022/10/05 03:21:08;;;;;;;16.10;7.63;;;;;;;11.26;83.86;100857.03;5036002;28;20442;-75
2022/10/05 03:23:52;;;;;;;16.83;8.90;;;;;;;11.33;84.26;100853.09;5068446;28;20459;-75
2022/10/05 03:26:39;;;;;;;16.90;8.45;;;;;;;11.41;84.55;100847.31;5068008;28;20445;-75
2022/10/05 03:29:23;;;;;;;19.08;8.70;;;;;;;11.44;85.07;100843.28;5061529;28;20425;-75
2022/10/05 03:32:21;;;;;;;15.68;8.93;;;;;;;11.49;85.12;100840.69;5044851;28;20510;-75
2022/10/05 03:35:18;;;;;;;20.15;9.27;;;;;;;11.51;85.36;100827.69;5021983;28;20892;-75
2022/10/05 03:37:55;;;;;;;14.75;8.90;;;;;;;11.50;85.77;100836.91;5050092;28;20463;-75
2022/10/05 03:40:57;;;;;;;19.75;9.43;;;;;;;11.53;86.16;100838.28;5044759;28;20405;-75
2022/10/05 03:43:31;;;;;;;19.08;9.38;;;;;;;11.51;86.00;100835.84;5034621;28;20387;-75
2022/10/05 03:46:10;;;;;;;18.05;9.57;;;;;;;11.53;86.32;100838.28;5067973;28;20712;-75
2022/10/05 03:49:15;;;;;;;14.35;8.27;;;;;;;11.57;86.41;100831.31;5052053;28;20407;-75
2022/10/05 03:51:58;;;;;;;26.95;8.93;;;;;;;11.57;86.55;100823.19;5068152;28;20441;-75
2022/10/05 03:54:32;;;;;;;12.45;7.93;;;;;;;11.58;86.72;100827.56;5065969;28;20425;-75
2022/10/05 03:57:06;;;;;;;12.43;7.70;;;;;;;11.60;86.59;100825.41;5072285;28;20870;-75
2022/10/05 03:59:39;;;;;;;23.15;7.80;;;;;;;11.59;86.71;100812.91;5048407;28;20411;-75
2022/10/05 04:02:11;;;;;;;11.38;7.28;;;;;;;11.59;86.80;100821.84;5064870;28;20374;-75
2022/10/05 04:04:46;;;;;;;19.73;7.70;;;;;;;11.54;86.90;100816.34;5067148;28;20388;-74
2022/10/05 04:07:42;;;;;;;11.05;7.28;;;;;;;11.52;87.27;100823.94;5071751;28;20422;-75
2022/10/05 04:10:22;;;;;;;10.40;6.53;;;;;;;11.48;87.11;100830.06;5049473;28;20430;-75
2022/10/05 04:12:54;;;;;;;8.82;7.20;;;;;;;11.48;87.06;100832.78;5071746;28;20388;-75
2022/10/05 04:15:29;;;;;;;12.90;7.53;;;;;;;11.51;87.25;100826.88;5071709;28;20471;-75
2022/10/05 04:18:11;;;;;;;11.57;6.88;;;;;;;11.49;87.14;100824.41;5065788;28;20381;-75
2022/10/05 04:20:48;;;;;;;9.02;6.78;;;;;;;11.51;86.99;100824.16;5055955;28;20408;-75
2022/10/05 04:23:37;;;;;;;11.23;6.90;;;;;;;11.51;86.86;100832.28;5054964;28;20981;-75
2022/10/05 04:26:14;;;;;;;9.27;6.82;;;;;;;11.49;87.04;100831.72;5035605;28;20400;-75
2022/10/05 04:28:54;;;;;;;9.68;6.80;;;;;;;11.49;86.73;100842.56;5068467;28;20394;-75
2022/10/05 04:32:15;;;;;;;12.15;7.63;;;;;;;11.45;86.86;100843.06;5056471;28;20429;-75
2022/10/05 04:34:46;;;;;;;13.93;7.22;;;;;;;11.44;86.73;100837.88;4998293;28;20514;-75
2022/10/05 04:37:30;;;;;;;9.45;7.88;;;;;;;11.41;86.96;100851.91;5049238;28;20490;-74
2022/10/05 04:40:11;;;;;;;15.48;7.22;;;;;;;11.44;86.96;100843.28;5038723;28;20766;-74
2022/10/05 04:42:52;;;;;;;15.00;7.85;;;;;;;11.46;86.68;100841.16;5057524;28;20746;-75
2022/10/05 04:45:49;;;;;;;9.57;8.05;;;;;;;11.41;86.61;100847.31;5042897;28;20413;-74
2022/10/05 04:48:21;;;;;;;12.93;7.63;;;;;;;11.38;87.01;100852.41;5041126;28;20387;-75
2022/10/05 04:50:56;;;;;;;14.80;8.18;;;;;;;11.36;87.09;100857.25;5053580;28;20486;-75
2022/10/05 04:53:27;;;;;;;9.60;8.05;;;;;;;11.34;87.28;100849.34;5054621;28;20424;-75
2022/10/05 04:56:05;;;;;;;12.80;7.93;;;;;;;11.41;86.90;100852.75;5048119;28;20434;-74
2022/10/05 04:58:59;;;;;;;12.73;8.07;;;;;;;11.47;86.82;100850.94;5060245;28;20453;-75
2022/10/05 05:01:58;;;;;;;16.40;7.97;;;;;;;11.50;86.68;100849.63;5051815;28;20485;-74
2022/10/05 05:05:07;;;;;;;12.45;8.07;;;;;;;11.49;86.67;100850.72;5045094;28;20762;-74
2022/10/05 05:07:48;;;;;;;13.93;7.82;;;;;;;11.48;86.59;100844.47;5012888;28;20449;-74
2022/10/05 05:10:38;;;;;;;9.95;7.55;;;;;;;11.48;86.40;100847.19;5042711;28;20422;-74
2022/10/05 05:13:22;;;;;;;16.02;6.75;;;;;;;11.50;86.54;100855.06;5050438;28;20393;-74
2022/10/05 05:16:24;;;;;;;33.38;8.63;;;;;;;11.48;86.59;100857.22;5052593;28;20413;-73
2022/10/05 05:19:19;;;;;;;16.88;7.93;;;;;;;11.48;86.80;100854.50;5043413;28;20429;-75
2022/10/05 05:21:55;;;;;;;36.42;8.55;;;;;;;11.48;86.90;100860.75;5044145;28;20400;-76
2022/10/05 05:25:03;;;;;;;24.08;7.30;;;;;;;11.49;86.83;100858.88;5037508;28;20896;-75
2022/10/05 05:27:57;;;;;;;20.23;7.45;;;;;;;11.46;86.90;100866.41;5051260;28;20399;-74
2022/10/05 05:30:32;;;;;;;35.05;7.03;;;;;;;11.44;86.89;100856.88;5038228;28;20498;-74
2022/10/05 05:33:03;;;;;;;11.50;7.35;;;;;;;11.43;87.08;100860.63;5052216;28;20392;-75
2022/10/05 05:35:47;;;;;;;11.95;7.30;;;;;;;11.43;87.15;100869.59;5058049;28;20481;-74
2022/10/05 05:38:29;;;;;;;16.55;7.22;;;;;;;11.44;86.95;100879.41;5052525;28;20407;-74
2022/10/05 05:41:03;;;;;;;20.47;7.60;;;;;;;11.42;86.99;100861.72;5047802;28;20399;-74
2022/10/05 05:43:42;;;;;;;17.33;7.40;;;;;;;11.42;86.90;100872.56;5062045;28;20788;-74
2022/10/05 05:46:21;;;;;;;14.98;7.10;;;;;;;11.42;87.06;100876.13;5057953;28;20478;-74
2022/10/05 05:48:47;;;;;;;24.83;8.47;;;;;;;11.42;87.10;100883.44;5052555;28;20463;-74
2022/10/05 05:51:23;;;;;;;17.38;7.75;;;;;;;11.45;87.08;100880.22;5067804;28;20411;-74
2022/10/05 05:54:00;;;;;;;15.20;7.65;;;;;;;11.46;87.18;100890.00;5062229;28;20463;-74
2022/10/05 05:56:38;;;;;;;10.23;7.57;;;;;;;11.51;87.20;100895.56;5050595;28;20432;-74
2022/10/05 05:59:17;;;;;;;21.47;8.27;;;;;;;11.53;87.01;100892.56;5043443;28;20441;-74
2022/10/05 06:01:50;;;;;;;17.80;8.80;;;;;;;11.53;86.88;100892.56;5057758;28;20901;-74
2022/10/05 06:04:24;;;;;;;21.88;9.50;;;;;;;11.49;86.97;100903.13;5041881;28;21003;-76
2022/10/05 06:06:58;;;;;;;21.20;10.15;;;;;;;11.51;87.43;100902.88;5016116;28;20453;-76
2022/10/05 06:09:44;;;;;;;23.70;9.85;;;;;;;11.51;87.04;100905.56;5041709;28;20394;-76
2022/10/05 06:12:17;;;;;;;18.77;9.68;;;;;;;11.50;87.43;100904.75;5048547;28;20815;-75
2022/10/05 06:14:57;;;;;;;19.45;9.77;;;;;;;11.55;87.44;100902.16;5042182;28;20923;-75
2022/10/05 06:17:44;;;;;;;16.38;10.00;;;;;;;11.68;86.95;100906.47;5025587;28;20413;-76
2022/10/05 06:20:26;;;;;;;19.75;9.50;;;;;;;11.77;86.79;100914.03;5029265;28;20407;-76
2022/10/05 06:22:56;;;;;;;18.23;8.40;;;;;;;11.76;86.37;100915.09;5017165;28;20404;-76
2022/10/05 06:25:43;;;;;;;10.55;7.95;;;;;;;11.81;86.49;100919.81;5025981;28;20393;-76
2022/10/05 06:28:12;;;;;;;21.05;7.95;;;;;;;11.78;86.63;100918.41;5036103;28;20389;-76
2022/10/05 06:30:51;;;;;;;14.52;7.95;;;;;;;11.79;86.56;100935.50;5042533;28;20905;-76
2022/10/05 06:33:44;;;;;;;24.58;7.63;;;;;;;11.78;86.56;100926.53;5042573;28;20409;-76
2022/10/05 06:36:47;;;;;;;8.75;7.45;;;;;;;11.85;86.37;100929.13;5027980;28;20436;-77
2022/10/05 06:39:53;;;;;;;7.72;7.07;;;;;;;11.95;85.88;100934.75;5037108;28;20436;-76
2022/10/05 06:42:33;;;;;;;8.60;7.55;;;;;;;11.93;86.02;100934.16;5026057;28;20803;-76
2022/10/05 06:45:01;;;;;;;8.65;7.50;;;;;;;12.00;86.03;100937.56;5041073;28;20456;-77
2022/10/05 06:48:06;;;;;;;12.10;7.82;;;;;;;12.04;86.09;100944.16;5045684;28;20886;-77
2022/10/05 06:50:41;;;;;;;9.98;8.77;;;;;;;12.01;86.38;100949.25;5047571;28;20420;-74
2022/10/05 06:53:30;;;;;;;17.88;8.77;;;;;;;12.04;86.16;100946.88;5046137;28;20461;-75
2022/10/05 06:56:08;;;;;;;11.95;8.90;;;;;;;12.05;86.46;100942.28;5045087;28;20389;-75
2022/10/05 06:58:33;;;;;;;13.25;9.30;;;;;;;12.13;86.71;100936.44;5049486;28;20385;-75
2022/10/05 07:01:57;;;;;;;13.02;10.05;;;;;;;12.20;86.53;100945.25;5028181;28;20459;-75
2022/10/05 07:04:53;;;;;;;19.60;11.07;;;;;;;12.26;86.45;100936.97;5032185;28;20915;-75
2022/10/05 07:07:36;;;;;;;15.88;10.70;;;;;;;12.30;86.37;100938.13;5046746;28;20452;-76
2022/10/05 07:10:16;;;;;;;14.73;10.35;;;;;;;12.32;86.64;100932.44;5038110;28;20905;-75
2022/10/05 07:13:18;;;;;;;16.02;10.40;;;;;;;12.32;86.84;100938.69;5041822;28;20421;-74
2022/10/05 07:16:16;;;;;;;15.38;10.65;;;;;;;12.30;86.91;100937.28;5031116;28;20447;-75
2022/10/05 07:18:47;;;;;;;12.55;10.13;;;;;;;12.36;87.24;100939.84;5023869;28;20750;-75
2022/10/05 07:21:26;;;;;;;15.57;10.50;;;;;;;12.43;86.65;100937.81;5032166;28;20451;-75
2022/10/05 07:24:39;;;;;;;14.15;10.70;;;;;;;12.45;86.57;100937.56;5042140;28;20421;-75
2022/10/05 07:27:24;;;;;;;18.30;12.02;;;;;;;12.48;86.61;100937.06;5028585;28;20545;-75
2022/10/05 07:29:58;;;;;;;14.03;10.90;;;;;;;12.53;86.31;100945.31;5037056;28;20406;-75
2022/10/05 07:32:35;;;;;;;14.60;10.43;;;;;;;12.58;86.29;100942.66;5046118;28;20752;-75
2022/10/05 07:37:53;;;;;;;14.00;11.38;;;;;;;12.63;86.14;100947.38;5019349;28;20406;-76
2022/10/05 07:38:04;;;;;;;12.30;10.20;;;;;;;12.61;86.20;100941.38;5035047;28;20413;-75
2022/10/05 07:40:39;;;;;;;14.88;10.75;;;;;;;12.57;86.77;100938.31;5044388;28;20399;-75
2022/10/05 07:43:18;;;;;;;16.45;10.82;;;;;;;12.65;86.42;100937.06;5038940;28;20405;-76
2022/10/05 07:45:45;;;;;;;13.90;11.10;;;;;;;12.74;86.50;100938.34;5038685;28;20452;-75
2022/10/05 07:48:14;;;;;;;12.00;10.30;;;;;;;12.86;86.08;100941.78;5035448;28;20433;-75
2022/10/05 07:50:57;;;;;;;11.03;9.93;;;;;;;12.91;86.00;100939.13;5034892;28;20430;-75
2022/10/05 07:53:36;;;;;;;13.55;10.70;;;;;;;12.99;85.24;100934.09;5044794;28;20389;-75
2022/10/05 07:56:29;;;;;;;13.32;10.95;;;;;;;12.98;85.71;100942.50;5039252;28;20403;-76
2022/10/05 07:59:06;;;;;;;12.68;11.02;;;;;;;13.05;85.86;100943.16;5026098;28;20432;-76
2022/10/05 08:01:35;;;;;;;13.88;11.95;;;;;;;13.05;85.54;100942.34;5027437;28;20412;-76
2022/10/05 08:04:26;;;;;;;14.73;11.88;;;;;;;13.13;85.64;100941.97;5044097;28;20393;-75
2022/10/05 08:06:56;;;;;;;11.63;10.30;;;;;;;13.12;85.73;100941.13;5025770;28;20437;-76
2022/10/05 08:09:36;;;;;;;13.60;11.10;;;;;;;13.21;85.34;100949.69;5000502;28;20408;-75
2022/10/05 08:12:10;;;;;;;14.40;11.32;;;;;;;13.29;85.47;100939.19;5033235;28;20408;-75
2022/10/05 08:14:50;;;;;;;14.85;11.25;;;;;;;13.49;84.64;100941.38;5033688;28;20407;-76
2022/10/05 08:17:34;;;;;;;14.13;12.25;;;;;;;13.51;84.47;100940.03;5042606;28;20414;-76
2022/10/05 08:20:18;;;;;;;13.70;11.05;;;;;;;13.58;84.58;100931.69;5028968;28;20540;-75
2022/10/05 08:22:56;;;;;;;16.13;11.60;;;;;;;13.62;84.67;100932.00;5044340;28;20406;-76
2022/10/05 08:25:29;;;;;;;12.82;11.38;;;;;;;13.66;84.48;100928.53;5040580;28;20892;-76
2022/10/05 08:28:14;;;;;;;15.40;11.57;;;;;;;13.67;84.33;100927.44;5047155;28;20385;-76
2022/10/05 08:31:10;;;;;;;13.27;10.77;;;;;;;13.77;84.03;100922.09;5046864;28;20922;-76
2022/10/05 08:33:52;;;;;;;13.95;11.13;;;;;;;13.93;83.92;100923.94;5043308;28;20403;-77
2022/10/05 08:36:27;;;;;;;13.05;10.98;;;;;;;14.12;84.13;100923.59;5036006;28;20472;-76
2022/10/05 08:38:58;;;;;;;11.63;10.10;;;;;;;14.25;83.36;100925.91;5022428;28;20399;-75
2022/10/05 08:41:35;;;;;;;14.02;10.32;;;;;;;14.30;83.19;100924.03;5030802;28;20412;-76
2022/10/05 08:44:03;;;;;;;12.18;10.38;;;;;;;14.21;83.58;100927.50;5034017;28;20404;-75
2022/10/05 08:47:04;;;;;;;11.07;9.68;;;;;;;14.07;83.94;100915.34;5051624;28;20401;-76
2022/10/05 08:49:51;;;;;;;14.52;9.40;;;;;;;14.01;84.45;100923.50;5047329;28;20395;-76
2022/10/05 08:52:37;;;;;;;13.05;10.02;;;;;;;14.00;84.45;100926.44;5040019;28;20410;-77
2022/10/05 08:55:09;;;;;;;10.77;9.68;;;;;;;13.97;84.86;100916.91;5046381;28;20396;-76
2022/10/05 08:58:11;;;;;;;15.15;10.95;;;;;;;13.98;85.04;100912.28;5041768;28;20764;-77
2022/10/05 09:00:55;;;;;;;10.88;9.85;;;;;;;13.96;85.28;100915.25;5048950;28;20417;-77
2022/10/05 09:03:39;;;;;;;12.18;10.23;;;;;;;13.97;85.44;100906.00;5036156;28;20919;-76
2022/10/05 09:06:27;;;;;;;10.38;9.27;;;;;;;14.04;85.39;100905.78;5051053;28;20393;-77
2022/10/05 09:09:18;;;;;;;10.40;9.37;;;;;;;14.06;85.27;100908.28;5046388;28;20826;-76
2022/10/05 09:11:55;;;;;;;11.18;9.38;;;;;;;14.05;85.38;100904.72;5028387;28;20858;-76
2022/10/05 09:14:53;;;;;;;10.40;9.25;;;;;;;14.12;85.72;100909.97;5028313;28;20547;-76
2022/10/05 09:17:43;;;;;;;10.40;9.35;;;;;;;14.15;85.49;100904.81;5025196;28;20757;-76
2022/10/05 09:20:29;;;;;;;11.23;9.48;;;;;;;14.23;85.47;100900.78;5043001;28;20408;-76
2022/10/05 09:23:03;;;;;;;12.45;8.23;;;;;;;14.30;85.58;100906.88;5039542;28;20439;-76
2022/10/05 09:25:44;;;;;;;9.15;8.25;;;;;;;14.38;85.58;100903.72;5039119;28;20438;-77
2022/10/05 09:28:26;;;;;;;8.80;7.72;;;;;;;14.56;85.74;100897.84;5031573;28;20414;-77
2022/10/05 09:31:10;;;;;;;7.90;7.20;;;;;;;15.35;83.57;100893.19;5037534;28;20405;-76
2022/10/05 09:33:46;;;;;;;8.63;7.75;;;;;;;16.55;78.29;100885.63;5042569;28;20447;-77
2022/10/05 09:36:33;;;;;;;7.88;7.00;;;;;;;16.81;75.75;100884.50;5040515;28;20411;-76
2022/10/05 09:39:18;;;;;;;8.70;6.88;;;;;;;15.99;78.34;100882.81;5029402;28;20472;-75
2022/10/05 09:42:11;;;;;;;8.77;7.03;;;;;;;15.63;80.15;100874.78;5029923;28;20403;-75
2022/10/05 09:45:24;;;;;;;6.93;6.25;;;;;;;15.48;81.40;100870.06;5051477;28;20546;-75
2022/10/05 09:48:10;;;;;;;7.25;6.55;;;;;;;15.78;81.29;100867.44;5030940;28;20419;-75
2022/10/05 09:50:43;;;;;;;6.80;6.20;;;;;;;16.10;80.33;100873.50;5048074;28;20907;-75
2022/10/05 09:53:14;;;;;;;6.60;6.00;;;;;;;16.34;79.29;100867.53;5036652;28;20469;-77
2022/10/05 09:56:04;;;;;;;5.72;5.22;;;;;;;16.56;78.87;100862.66;5041567;28;20962;-77
2022/10/05 09:58:41;;;;;;;5.57;5.07;;;;;;;17.33;77.40;100861.38;5027837;28;20405;-78
2022/10/05 10:01:44;;;;;;;4.90;4.60;;;;;;;19.09;72.04;100865.63;5044668;28;20405;-77
2022/10/05 10:04:51;;;;;;;5.40;4.30;;;;;;;20.57;67.23;100857.84;5027511;28;20420;-76
2022/10/05 10:07:35;;;;;;;5.07;4.55;;;;;;;21.54;64.14;100854.06;5040429;28;20485;-77
2022/10/05 10:10:19;;;;;;;4.35;4.05;;;;;;;22.07;62.46;100846.81;5044968;28;20980;-76
2022/10/05 10:12:55;;;;;;;4.80;3.55;;;;;;;22.09;61.87;100844.59;5049748;28;20439;-77
2022/10/05 10:16:09;;;;;;;4.10;3.70;;;;;;;22.21;61.30;100844.84;5042300;28;20451;-76
2022/10/05 10:18:53;;;;;;;3.72;3.53;;;;;;;22.62;60.11;100833.56;5030516;28;20442;-77
2022/10/05 10:21:56;;;;;;;3.75;3.50;;;;;;;23.04;59.32;100840.50;5042678;28;20381;-78
2022/10/05 10:25:03;;;;;;;4.07;3.78;;;;;;;23.42;57.92;100838.03;5048066;28;20489;-78
2022/10/05 10:27:44;;;;;;;2.97;2.88;;;;;;;23.77;55.93;100825.94;5009597;28;20430;-77
2022/10/05 10:30:31;;;;;;;3.08;2.88;;;;;;;24.69;53.22;100824.56;5041471;28;20409;-77
2022/10/05 10:33:10;;;;;;;3.55;2.97;;;;;;;25.83;49.13;100832.03;5048187;28;20393;-76
2022/10/05 10:35:45;;;;;;;6.18;3.17;;;;;;;26.75;47.21;100831.53;5036840;28;20457;-77
2022/10/05 10:38:22;;;;;;;2.65;2.55;;;;;;;27.41;45.33;100836.97;5049280;28;20401;-77
2022/10/05 10:41:12;;;;;;;3.00;2.70;;;;;;;28.18;43.58;100837.81;5048047;28;20857;-77
2022/10/05 10:44:11;;;;;;;2.90;2.67;;;;;;;28.73;42.21;100837.78;5042707;28;20409;-77
2022/10/05 10:47:01;;;;;;;2.55;2.45;;;;;;;28.98;41.22;100832.84;5039770;28;20760;-77
2022/10/05 10:50:04;;;;;;;4.78;2.08;;;;;;;29.04;40.09;100831.44;5036545;28;20753;-77
2022/10/05 10:52:52;;;;;;;1.92;1.83;;;;;;;29.07;40.04;100829.91;5029313;28;20776;-76
2022/10/05 10:55:42;;;;;;;2.15;2.05;;;;;;;29.15;39.35;100823.31;5029084;28;20408;-76
2022/10/05 10:58:47;;;;;;;1.90;1.80;;;;;;;28.83;40.14;100831.69;5048220;28;20443;-77
2022/10/05 11:01:31;;;;;;;3.05;1.90;;;;;;;28.41;41.27;100832.47;5042034;28;20387;-76
2022/10/05 11:04:48;;;;;;;2.30;1.70;;;;;;;28.13;42.48;100822.13;5030964;28;20771;-76
2022/10/05 11:07:44;;;;;;;2.75;1.75;;;;;;;28.93;41.40;100823.94;5021370;28;20409;-77
2022/10/05 11:10:31;;;;;;;2.00;1.67;;;;;;;29.34;40.41;100815.84;5033857;28;20418;-76
2022/10/05 11:13:23;;;;;;;3.15;1.73;;;;;;;29.56;39.64;100819.97;5046903;28;20391;-76
2022/10/05 11:15:55;;;;;;;2.08;1.88;;;;;;;29.65;39.47;100817.78;5039277;28;20532;-76
2022/10/05 11:18:30;;;;;;;1.60;1.50;;;;;;;29.75;39.22;100816.41;5044431;28;20390;-76
2022/10/05 11:21:16;;;;;;;2.60;1.65;;;;;;;29.99;39.22;100807.78;5060932;28;20831;-77
2022/10/05 11:23:53;;;;;;;4.28;1.80;;;;;;;29.59;39.77;100793.28;5037591;28;20415;-77
2022/10/05 11:27:02;;;;;;;2.30;1.63;;;;;;;29.05;40.79;100804.31;5027675;28;20433;-77
2022/10/05 11:30:02;;;;;;;2.38;1.88;;;;;;;28.33;42.34;100795.22;5030833;28;20446;-77
2022/10/05 11:33:01;;;;;;;2.28;1.80;;;;;;;28.31;42.00;100784.44;5041785;28;20871;-76
2022/10/05 11:35:46;;;;;;;2.65;1.90;;;;;;;27.21;44.45;100788.63;5046347;28;20416;-77
2022/10/05 11:38:11;;;;;;;2.30;1.70;;;;;;;25.92;47.44;100783.63;5041928;28;20401;-77
2022/10/05 11:40:49;;;;;;;3.53;1.60;;;;;;;25.27;49.50;100773.94;5043708;28;20401;-77
2022/10/05 11:43:33;;;;;;;3.10;1.60;;;;;;;24.83;50.80;100774.47;5036336;28;20860;-76
2022/10/05 11:46:16;;;;;;;3.15;1.40;;;;;;;24.64;51.07;100766.53;5014455;28;20780;-75
2022/10/05 11:49:12;;;;;;;2.10;1.52;;;;;;;24.50;51.69;100765.94;5031806;28;20919;-75
2022/10/05 11:52:15;;;;;;;4.50;1.30;;;;;;;24.37;52.25;100760.59;5020066;28;20432;-75
2022/10/05 11:54:54;;;;;;;3.45;1.10;;;;;;;24.40;52.45;100765.50;5021291;28;20928;-76
2022/10/05 11:57:37;;;;;;;3.35;1.35;;;;;;;24.37;51.81;100760.59;5016722;28;20408;-76
2022/10/05 12:00:11;;;;;;;1.83;1.40;;;;;;;24.28;51.62;100760.59;5029259;28;20409;-76
2022/10/05 12:02:45;;;;;;;1.27;1.17;;;;;;;24.11;51.17;100755.88;5031570;28;20788;-75
2022/10/05 12:05:20;;;;;;;4.93;2.20;;;;;;;23.96;51.86;100745.31;5028213;28;20768;-75
2022/10/05 12:08:12;;;;;;;1.83;1.10;;;;;;;23.84;51.83;100742.41;5028865;28;20417;-76
2022/10/05 12:10:47;;;;;;;1.92;1.05;;;;;;;23.78;51.95;100738.97;5046207;28;20894;-76
2022/10/05 12:13:24;;;;;;;1.20;1.17;;;;;;;23.60;52.30;100750.38;5053606;28;20418;-75
2022/10/05 12:15:56;;;;;;;1.20;1.10;;;;;;;23.40;52.85;100743.53;5042176;28;20407;-76
2022/10/05 12:18:38;;;;;;;1.10;1.10;;;;;;;23.36;52.64;100742.50;5030968;28;20410;-76
2022/10/05 12:21:54;;;;;;;1.30;1.30;;;;;;;23.41;52.37;100733.28;5044146;28;20432;-76
2022/10/05 12:24:34;;;;;;;4.43;1.47;;;;;;;23.42;53.14;100740.41;5007081;28;20401;-75
2022/10/05 12:27:28;;;;;;;2.45;1.20;;;;;;;23.41;53.00;100733.28;5043473;28;20528;-76
2022/10/05 12:30:12;;;;;;;1.20;1.10;;;;;;;23.39;53.49;100738.28;5054024;28;20918;-77